Overview Statistics Trail Chart Weather Telemetry Raw packets
 

This is the latest recevied weather packets stored in our database for station/object W5ITZ. If no packets are shown the sender has not sent any weather packets the latest 10 day(s).

<< 41 42 43 44 45 46 47 >>
Time Temp. Humidity Pressure Rain* Wind** Luminosity Snow
1787947611 29.44° C 65% 1015.6 hPa 0 mm - 198 W/m² -
1787947309 29.44° C 61% 1015.4 hPa 0 mm - 175 W/m² -
1787947004 28.89° C 64% 1015.4 hPa 0 mm - 173 W/m² -
1787946703 28.89° C 67% 1015.9 hPa 0 mm - 191 W/m² -
1787946398 28.89° C 68% 1016.1 hPa 0 mm - 309 W/m² -
1787946098 28.89° C 65% 1016.3 hPa 0 mm - 694 W/m² -
1787945793 28.33° C 66% 1016.3 hPa 0 mm - 1026 W/m² -
1787945493 28.33° C 68% 1016.7 hPa 0 mm - 414 W/m² -
1787945189 28.33° C 69% 1016.7 hPa 0 mm - 408 W/m² -
1787944887 29.44° C 67% 1016.7 hPa 0 mm - 378 W/m² -
1787944586 29.44° C 69% 1016.6 hPa 0 mm - 1103 W/m² -
1787944282 31.67° C 62% 1016.8 hPa 0 mm - 321 W/m² -
1787943982 31.67° C 64% 1016.3 hPa 0 mm - 800 W/m² -
1787943678 31.67° C 65% 1016.3 hPa 0 mm - 345 W/m² -
1787943372 33.33° C 60% 1016.2 hPa 0 mm - 339 W/m² -
1787943067 36.11° C 53% 1016.2 hPa 0 mm - 345 W/m² -
1787942762 36.11° C 48% 1016.2 hPa 0 mm - 1035 W/m² -
1787942457 35.56° C 47% 1016.5 hPa 0 mm - 452 W/m² -
1787942156 36.11° C 47% 1016.4 hPa 0 mm - 568 W/m² -
1787941852 36.11° C 47% 1016.2 hPa 0 mm - 1012 W/m² -
1787941551 36.11° C 47% 1016.5 hPa 0 mm - 1060 W/m² -
1787941246 36.11° C 47% 1016.4 hPa 0 mm - 1094 W/m² -
1787940940 36.11° C 47% 1016.6 hPa 0 mm - 1081 W/m² -
1787940639 36.11° C 49% 1016.5 hPa 0 mm - 752 W/m² -
1787940338 36.11° C 48% 1016.3 hPa 0 mm - 545 W/m² -

* Rain latest hour (hover to see other rain measurements)
** Current wind speed in m/s (hover to see current wind gust speed)